sensor_id;sensor_type;location;lat;lon;timestamp;temperature;humidity
62998;DHT22;55949;52.590;7.330;2023-02-13T00:00:27;9.90;99.90
62998;DHT22;55949;52.590;7.330;2023-02-13T00:01:28;9.80;99.90
62998;DHT22;55949;52.590;7.330;2023-02-13T00:02:29;9.80;99.90
62998;DHT22;55949;52.590;7.330;2023-02-13T00:03:29;9.80;99.90
62998;DHT22;55949;52.590;7.330;2023-02-13T00:04:30;9.70;99.90
62998;DHT22;55949;52.590;7.330;2023-02-13T00:05:31;9.70;99.90
62998;DHT22;55949;52.590;7.330;2023-02-13T00:06:32;9.70;99.90
62998;DHT22;55949;52.590;7.330;2023-02-13T00:07:32;9.70;99.90
62998;DHT22;55949;52.590;7.330;2023-02-13T00:08:33;9.70;99.90
62998;DHT22;55949;52.590;7.330;2023-02-13T00:09:34;9.70;99.90
62998;DHT22;55949;52.590;7.330;2023-02-13T00:10:35;9.80;99.90
62998;DHT22;55949;52.590;7.330;2023-02-13T00:11:36;9.90;99.90
62998;DHT22;55949;52.590;7.330;2023-02-13T00:12:37;9.90;99.90
62998;DHT22;55949;52.590;7.330;2023-02-13T00:13:38;9.90;99.90
62998;DHT22;55949;52.590;7.330;2023-02-13T00:14:39;9.90;99.90
62998;DHT22;55949;52.590;7.330;2023-02-13T00:15:40;9.90;99.90
62998;DHT22;55949;52.590;7.330;2023-02-13T00:16:40;9.90;99.90
62998;DHT22;55949;52.590;7.330;2023-02-13T00:17:41;9.80;99.90
62998;DHT22;55949;52.590;7.330;2023-02-13T00:18:42;9.80;99.90
62998;DHT22;55949;52.590;7.330;2023-02-13T00:19:42;9.80;99.90
62998;DHT22;55949;52.590;7.330;2023-02-13T00:20:43;9.90;99.90
62998;DHT22;55949;52.590;7.330;2023-02-13T00:21:44;10.00;99.90
62998;DHT22;55949;52.590;7.330;2023-02-13T00:22:44;10.00;99.90
62998;DHT22;55949;52.590;7.330;2023-02-13T00:23:45;10.20;99.90
62998;DHT22;55949;52.590;7.330;2023-02-13T00:24:46;10.20;99.90
62998;DHT22;55949;52.590;7.330;2023-02-13T00:25:47;10.30;99.90
62998;DHT22;55949;52.590;7.330;2023-02-13T00:26:47;10.50;99.90
62998;DHT22;55949;52.590;7.330;2023-02-13T00:27:50;10.60;99.90
62998;DHT22;55949;52.590;7.330;2023-02-13T00:28:51;10.60;99.90
62998;DHT22;55949;52.590;7.330;2023-02-13T00:29:52;10.40;99.90
62998;DHT22;55949;52.590;7.330;2023-02-13T00:30:52;10.30;99.90
62998;DHT22;55949;52.590;7.330;2023-02-13T00:31:53;10.30;99.90
62998;DHT22;55949;52.590;7.330;2023-02-13T00:32:54;10.20;99.90
62998;DHT22;55949;52.590;7.330;2023-02-13T00:33:54;10.10;99.90
62998;DHT22;55949;52.590;7.330;2023-02-13T00:34:55;10.10;99.90
62998;DHT22;55949;52.590;7.330;2023-02-13T00:36:16;10.00;99.90
62998;DHT22;55949;52.590;7.330;2023-02-13T00:37:16;9.90;99.90
62998;DHT22;55949;52.590;7.330;2023-02-13T00:38:17;9.80;99.90
62998;DHT22;55949;52.590;7.330;2023-02-13T00:39:18;9.80;99.90
62998;DHT22;55949;52.590;7.330;2023-02-13T00:40:19;9.70;99.90
62998;DHT22;55949;52.590;7.330;2023-02-13T00:41:20;9.70;99.90
62998;DHT22;55949;52.590;7.330;2023-02-13T00:42:21;9.70;99.90
62998;DHT22;55949;52.590;7.330;2023-02-13T00:43:25;9.60;99.90
62998;DHT22;55949;52.590;7.330;2023-02-13T00:44:26;9.60;99.90
62998;DHT22;55949;52.590;7.330;2023-02-13T00:45:27;9.60;99.90
62998;DHT22;55949;52.590;7.330;2023-02-13T00:46:27;9.70;99.90
62998;DHT22;55949;52.590;7.330;2023-02-13T00:47:28;9.70;99.90
62998;DHT22;55949;52.590;7.330;2023-02-13T00:48:31;9.80;99.90
62998;DHT22;55949;52.590;7.330;2023-02-13T00:49:31;9.80;99.90
62998;DHT22;55949;52.590;7.330;2023-02-13T00:50:32;9.80;99.90
62998;DHT22;55949;52.590;7.330;2023-02-13T00:51:33;9.80;99.90
62998;DHT22;55949;52.590;7.330;2023-02-13T00:53:44;9.70;99.90
62998;DHT22;55949;52.590;7.330;2023-02-13T00:54:45;9.70;99.90
62998;DHT22;55949;52.590;7.330;2023-02-13T00:55:47;9.70;99.90
62998;DHT22;55949;52.590;7.330;2023-02-13T00:56:48;9.70;99.90
62998;DHT22;55949;52.590;7.330;2023-02-13T00:57:49;9.80;99.90
62998;DHT22;55949;52.590;7.330;2023-02-13T00:58:50;9.70;99.90
62998;DHT22;55949;52.590;7.330;2023-02-13T00:59:50;9.70;99.90
62998;DHT22;55949;52.590;7.330;2023-02-13T01:00:52;9.70;99.90
62998;DHT22;55949;52.590;7.330;2023-02-13T01:01:53;9.70;99.90
62998;DHT22;55949;52.590;7.330;2023-02-13T01:02:53;9.70;99.90
62998;DHT22;55949;52.590;7.330;2023-02-13T01:03:54;9.70;99.90
62998;DHT22;55949;52.590;7.330;2023-02-13T01:04:55;9.70;99.90
62998;DHT22;55949;52.590;7.330;2023-02-13T01:05:56;9.70;99.90
62998;DHT22;55949;52.590;7.330;2023-02-13T01:06:57;9.70;99.90
62998;DHT22;55949;52.590;7.330;2023-02-13T01:07:58;9.60;99.90
62998;DHT22;55949;52.590;7.330;2023-02-13T01:08:59;9.60;99.90
62998;DHT22;55949;52.590;7.330;2023-02-13T01:09:59;9.60;99.90
62998;DHT22;55949;52.590;7.330;2023-02-13T01:11:00;9.50;99.90
62998;DHT22;55949;52.590;7.330;2023-02-13T01:12:01;9.60;99.90
62998;DHT22;55949;52.590;7.330;2023-02-13T01:13:02;9.60;99.90
62998;DHT22;55949;52.590;7.330;2023-02-13T01:14:02;9.70;99.90
62998;DHT22;55949;52.590;7.330;2023-02-13T01:15:04;9.60;99.90
62998;DHT22;55949;52.590;7.330;2023-02-13T01:16:05;9.70;99.90
62998;DHT22;55949;52.590;7.330;2023-02-13T01:17:06;9.70;99.90
62998;DHT22;55949;52.590;7.330;2023-02-13T01:18:07;9.70;99.90
62998;DHT22;55949;52.590;7.330;2023-02-13T01:19:07;9.70;99.90
62998;DHT22;55949;52.590;7.330;2023-02-13T01:20:10;9.70;99.90
62998;DHT22;55949;52.590;7.330;2023-02-13T01:21:17;9.60;99.90
62998;DHT22;55949;52.590;7.330;2023-02-13T01:22:18;9.60;99.90
62998;DHT22;55949;52.590;7.330;2023-02-13T01:23:19;9.60;99.90
62998;DHT22;55949;52.590;7.330;2023-02-13T01:24:20;9.50;99.90
62998;DHT22;55949;52.590;7.330;2023-02-13T01:25:21;9.50;99.90
62998;DHT22;55949;52.590;7.330;2023-02-13T01:26:23;9.60;99.90
62998;DHT22;55949;52.590;7.330;2023-02-13T01:27:26;9.50;99.90
62998;DHT22;55949;52.590;7.330;2023-02-13T01:28:27;9.50;99.90
62998;DHT22;55949;52.590;7.330;2023-02-13T01:29:28;9.50;99.90
62998;DHT22;55949;52.590;7.330;2023-02-13T01:30:29;9.60;99.90
62998;DHT22;55949;52.590;7.330;2023-02-13T01:31:30;9.50;99.90
62998;DHT22;55949;52.590;7.330;2023-02-13T01:32:30;9.50;99.90
62998;DHT22;55949;52.590;7.330;2023-02-13T01:33:31;9.50;99.90
62998;DHT22;55949;52.590;7.330;2023-02-13T01:34:32;9.50;99.90
62998;DHT22;55949;52.590;7.330;2023-02-13T01:35:33;9.60;99.90
62998;DHT22;55949;52.590;7.330;2023-02-13T01:36:34;9.60;99.90
62998;DHT22;55949;52.590;7.330;2023-02-13T01:37:35;9.50;99.90
62998;DHT22;55949;52.590;7.330;2023-02-13T01:38:36;9.50;99.90
62998;DHT22;55949;52.590;7.330;2023-02-13T01:39:37;9.40;99.90
62998;DHT22;55949;52.590;7.330;2023-02-13T01:40:53;9.40;99.90
62998;DHT22;55949;52.590;7.330;2023-02-13T01:41:53;9.80;99.90
62998;DHT22;55949;52.590;7.330;2023-02-13T01:42:54;10.00;99.90
62998;DHT22;55949;52.590;7.330;2023-02-13T01:43:57;10.20;99.90
62998;DHT22;55949;52.590;7.330;2023-02-13T01:45:26;10.50;99.90
62998;DHT22;55949;52.590;7.330;2023-02-13T01:46:38;10.80;99.90
62998;DHT22;55949;52.590;7.330;2023-02-13T01:49:18;11.40;99.90
62998;DHT22;55949;52.590;7.330;2023-02-13T01:51:31;11.70;99.90
62998;DHT22;55949;52.590;7.330;2023-02-13T01:52:33;11.70;99.90
62998;DHT22;55949;52.590;7.330;2023-02-13T01:53:57;11.60;99.90
62998;DHT22;55949;52.590;7.330;2023-02-13T01:54:59;11.30;99.90
62998;DHT22;55949;52.590;7.330;2023-02-13T01:56:33;11.00;99.90
62998;DHT22;55949;52.590;7.330;2023-02-13T01:57:36;10.90;99.90
62998;DHT22;55949;52.590;7.330;2023-02-13T01:58:40;10.70;99.90
62998;DHT22;55949;52.590;7.330;2023-02-13T01:59:50;10.50;99.90
62998;DHT22;55949;52.590;7.330;2023-02-13T02:00:51;10.40;99.90
62998;DHT22;55949;52.590;7.330;2023-02-13T02:01:53;10.20;99.90
62998;DHT22;55949;52.590;7.330;2023-02-13T02:02:59;10.20;99.90
62998;DHT22;55949;52.590;7.330;2023-02-13T02:04:11;10.20;99.90
62998;DHT22;55949;52.590;7.330;2023-02-13T02:05:13;10.10;99.90
62998;DHT22;55949;52.590;7.330;2023-02-13T02:06:29;10.00;99.90
62998;DHT22;55949;52.590;7.330;2023-02-13T02:07:30;9.90;99.90
62998;DHT22;55949;52.590;7.330;2023-02-13T02:08:32;9.90;99.90
62998;DHT22;55949;52.590;7.330;2023-02-13T02:09:37;9.70;99.90
62998;DHT22;55949;52.590;7.330;2023-02-13T02:10:39;9.60;99.90
62998;DHT22;55949;52.590;7.330;2023-02-13T02:11:47;9.50;99.90
62998;DHT22;55949;52.590;7.330;2023-02-13T02:13:11;9.50;99.90
62998;DHT22;55949;52.590;7.330;2023-02-13T02:14:12;9.50;99.90
62998;DHT22;55949;52.590;7.330;2023-02-13T02:15:13;9.50;99.90
62998;DHT22;55949;52.590;7.330;2023-02-13T02:16:14;9.50;99.90
62998;DHT22;55949;52.590;7.330;2023-02-13T02:17:15;9.50;99.90
62998;DHT22;55949;52.590;7.330;2023-02-13T02:18:18;9.50;99.90
62998;DHT22;55949;52.590;7.330;2023-02-13T02:27:07;9.60;99.90
62998;DHT22;55949;52.590;7.330;2023-02-13T02:36:31;9.30;99.90
62998;DHT22;55949;52.590;7.330;2023-02-13T02:46:00;9.40;99.90
62998;DHT22;55949;52.590;7.330;2023-02-13T02:50:35;9.30;99.90
62998;DHT22;55949;52.590;7.330;2023-02-13T02:51:42;9.50;99.90
62998;DHT22;55949;52.590;7.330;2023-02-13T02:54:15;9.50;99.90
62998;DHT22;55949;52.590;7.330;2023-02-13T02:57:27;9.70;99.90
62998;DHT22;55949;52.590;7.330;2023-02-13T02:59:10;9.80;99.90
62998;DHT22;55949;52.590;7.330;2023-02-13T03:00:32;9.70;99.90
62998;DHT22;55949;52.590;7.330;2023-02-13T03:01:53;9.80;99.90
62998;DHT22;55949;52.590;7.330;2023-02-13T03:03:18;9.60;99.90
62998;DHT22;55949;52.590;7.330;2023-02-13T03:04:41;9.60;99.90
62998;DHT22;55949;52.590;7.330;2023-02-13T03:06:03;9.60;99.90
62998;DHT22;55949;52.590;7.330;2023-02-13T03:07:15;9.70;99.90
62998;DHT22;55949;52.590;7.330;2023-02-13T03:08:16;10.00;99.90
62998;DHT22;55949;52.590;7.330;2023-02-13T03:09:44;10.00;99.90
62998;DHT22;55949;52.590;7.330;2023-02-13T03:11:05;9.90;99.90
62998;DHT22;55949;52.590;7.330;2023-02-13T03:12:29;10.10;99.90
62998;DHT22;55949;52.590;7.330;2023-02-13T03:13:51;10.20;99.90
62998;DHT22;55949;52.590;7.330;2023-02-13T03:14:52;10.10;99.90
62998;DHT22;55949;52.590;7.330;2023-02-13T03:15:57;10.00;99.90
62998;DHT22;55949;52.590;7.330;2023-02-13T03:17:31;9.80;99.90
62998;DHT22;55949;52.590;7.330;2023-02-13T03:18:53;9.80;99.90
62998;DHT22;55949;52.590;7.330;2023-02-13T03:22:41;9.60;99.90
62998;DHT22;55949;52.590;7.330;2023-02-13T03:24:06;9.50;99.90
62998;DHT22;55949;52.590;7.330;2023-02-13T03:26:06;9.80;99.90
62998;DHT22;55949;52.590;7.330;2023-02-13T03:26:56;9.80;99.90
62998;DHT22;55949;52.590;7.330;2023-02-13T03:28:21;9.70;99.90
62998;DHT22;55949;52.590;7.330;2023-02-13T03:30:00;9.90;99.90
62998;DHT22;55949;52.590;7.330;2023-02-13T03:31:14;10.10;99.90
62998;DHT22;55949;52.590;7.330;2023-02-13T03:36:53;9.70;99.90
62998;DHT22;55949;52.590;7.330;2023-02-13T03:38:44;9.60;99.90
62998;DHT22;55949;52.590;7.330;2023-02-13T03:41:17;9.70;99.90
62998;DHT22;55949;52.590;7.330;2023-02-13T03:42:41;9.70;99.90
62998;DHT22;55949;52.590;7.330;2023-02-13T03:44:12;9.60;99.90
62998;DHT22;55949;52.590;7.330;2023-02-13T03:45:20;9.50;99.90
62998;DHT22;55949;52.590;7.330;2023-02-13T03:46:46;9.60;99.90
62998;DHT22;55949;52.590;7.330;2023-02-13T03:47:52;9.50;99.90
62998;DHT22;55949;52.590;7.330;2023-02-13T03:48:55;9.40;99.90
62998;DHT22;55949;52.590;7.330;2023-02-13T03:50:15;9.40;99.90
62998;DHT22;55949;52.590;7.330;2023-02-13T03:51:22;9.40;99.90
62998;DHT22;55949;52.590;7.330;2023-02-13T03:52:30;9.40;99.90
62998;DHT22;55949;52.590;7.330;2023-02-13T03:53:34;9.50;99.90
62998;DHT22;55949;52.590;7.330;2023-02-13T03:54:43;9.50;99.90
62998;DHT22;55949;52.590;7.330;2023-02-13T03:56:05;9.50;99.90
62998;DHT22;55949;52.590;7.330;2023-02-13T03:57:26;9.50;99.90
62998;DHT22;55949;52.590;7.330;2023-02-13T03:58:50;9.30;99.90
62998;DHT22;55949;52.590;7.330;2023-02-13T04:00:12;9.30;99.90
62998;DHT22;55949;52.590;7.330;2023-02-13T04:01:16;9.50;99.90
62998;DHT22;55949;52.590;7.330;2023-02-13T04:02:23;9.50;99.90
62998;DHT22;55949;52.590;7.330;2023-02-13T04:03:29;9.40;99.90
62998;DHT22;55949;52.590;7.330;2023-02-13T04:05:43;9.40;99.90
62998;DHT22;55949;52.590;7.330;2023-02-13T04:07:01;9.20;99.90
62998;DHT22;55949;52.590;7.330;2023-02-13T04:08:03;9.20;99.90
62998;DHT22;55949;52.590;7.330;2023-02-13T04:09:04;9.30;99.90
62998;DHT22;55949;52.590;7.330;2023-02-13T04:10:13;9.30;99.90
62998;DHT22;55949;52.590;7.330;2023-02-13T04:11:24;9.70;99.90
62998;DHT22;55949;52.590;7.330;2023-02-13T04:12:55;9.90;99.90
62998;DHT22;55949;52.590;7.330;2023-02-13T04:15:47;9.80;99.90
62998;DHT22;55949;52.590;7.330;2023-02-13T04:16:35;9.70;99.90
62998;DHT22;55949;52.590;7.330;2023-02-13T04:17:48;9.70;99.90
62998;DHT22;55949;52.590;7.330;2023-02-13T04:18:51;9.60;99.90
62998;DHT22;55949;52.590;7.330;2023-02-13T04:19:53;9.50;99.90
62998;DHT22;55949;52.590;7.330;2023-02-13T04:20:54;9.50;99.90
62998;DHT22;55949;52.590;7.330;2023-02-13T04:21:57;9.40;99.90
62998;DHT22;55949;52.590;7.330;2023-02-13T04:23:06;9.50;99.90
62998;DHT22;55949;52.590;7.330;2023-02-13T04:24:08;9.60;99.90
62998;DHT22;55949;52.590;7.330;2023-02-13T04:25:10;9.60;99.90
62998;DHT22;55949;52.590;7.330;2023-02-13T04:26:17;9.80;99.90
62998;DHT22;55949;52.590;7.330;2023-02-13T04:27:19;9.80;99.90
62998;DHT22;55949;52.590;7.330;2023-02-13T04:28:19;9.80;99.90
62998;DHT22;55949;52.590;7.330;2023-02-13T04:29:22;9.80;99.90
62998;DHT22;55949;52.590;7.330;2023-02-13T04:30:23;9.80;99.90
62998;DHT22;55949;52.590;7.330;2023-02-13T04:31:24;9.80;99.90
62998;DHT22;55949;52.590;7.330;2023-02-13T04:32:25;9.80;99.90
62998;DHT22;55949;52.590;7.330;2023-02-13T04:33:25;9.80;99.90
62998;DHT22;55949;52.590;7.330;2023-02-13T04:34:26;9.80;99.90
62998;DHT22;55949;52.590;7.330;2023-02-13T04:35:27;9.80;99.90
62998;DHT22;55949;52.590;7.330;2023-02-13T04:36:28;9.80;99.90
62998;DHT22;55949;52.590;7.330;2023-02-13T04:37:28;9.80;99.90
62998;DHT22;55949;52.590;7.330;2023-02-13T04:38:29;9.80;99.90
62998;DHT22;55949;52.590;7.330;2023-02-13T04:39:30;9.70;99.90
62998;DHT22;55949;52.590;7.330;2023-02-13T04:40:30;9.60;99.90
62998;DHT22;55949;52.590;7.330;2023-02-13T04:41:31;9.60;99.90
62998;DHT22;55949;52.590;7.330;2023-02-13T04:42:32;9.60;99.90
62998;DHT22;55949;52.590;7.330;2023-02-13T04:43:32;9.80;99.90
62998;DHT22;55949;52.590;7.330;2023-02-13T04:44:33;10.00;99.90
62998;DHT22;55949;52.590;7.330;2023-02-13T04:45:34;10.10;99.90
62998;DHT22;55949;52.590;7.330;2023-02-13T04:46:34;10.30;99.90
62998;DHT22;55949;52.590;7.330;2023-02-13T04:47:35;10.20;99.90
62998;DHT22;55949;52.590;7.330;2023-02-13T04:48:36;10.40;99.90
62998;DHT22;55949;52.590;7.330;2023-02-13T04:49:37;10.30;99.90
62998;DHT22;55949;52.590;7.330;2023-02-13T04:50:37;10.20;99.90
62998;DHT22;55949;52.590;7.330;2023-02-13T04:51:38;10.00;99.90
62998;DHT22;55949;52.590;7.330;2023-02-13T04:52:39;9.90;99.90
62998;DHT22;55949;52.590;7.330;2023-02-13T04:53:39;9.90;99.90
62998;DHT22;55949;52.590;7.330;2023-02-13T04:54:40;9.90;99.90
62998;DHT22;55949;52.590;7.330;2023-02-13T04:55:41;9.90;99.90
62998;DHT22;55949;52.590;7.330;2023-02-13T04:56:42;9.80;99.90
62998;DHT22;55949;52.590;7.330;2023-02-13T04:57:43;9.80;99.90
62998;DHT22;55949;52.590;7.330;2023-02-13T04:58:44;9.70;99.90
62998;DHT22;55949;52.590;7.330;2023-02-13T04:59:44;9.60;99.90
62998;DHT22;55949;52.590;7.330;2023-02-13T05:00:45;9.50;99.90
62998;DHT22;55949;52.590;7.330;2023-02-13T05:01:46;9.40;99.90
62998;DHT22;55949;52.590;7.330;2023-02-13T05:02:46;9.30;99.90
62998;DHT22;55949;52.590;7.330;2023-02-13T05:03:47;9.30;99.90
62998;DHT22;55949;52.590;7.330;2023-02-13T05:04:48;9.20;99.90
62998;DHT22;55949;52.590;7.330;2023-02-13T05:05:49;9.20;99.90
62998;DHT22;55949;52.590;7.330;2023-02-13T05:06:50;9.20;99.90
62998;DHT22;55949;52.590;7.330;2023-02-13T05:07:50;9.20;99.90
62998;DHT22;55949;52.590;7.330;2023-02-13T05:08:51;9.30;99.90
62998;DHT22;55949;52.590;7.330;2023-02-13T05:09:52;9.20;99.90
62998;DHT22;55949;52.590;7.330;2023-02-13T05:10:52;9.20;99.90
62998;DHT22;55949;52.590;7.330;2023-02-13T05:11:53;9.20;99.90
62998;DHT22;55949;52.590;7.330;2023-02-13T05:12:54;9.20;99.90
62998;DHT22;55949;52.590;7.330;2023-02-13T05:13:55;9.20;99.90
62998;DHT22;55949;52.590;7.330;2023-02-13T05:14:55;9.10;99.90
62998;DHT22;55949;52.590;7.330;2023-02-13T05:15:56;9.20;99.90
62998;DHT22;55949;52.590;7.330;2023-02-13T05:16:57;9.20;99.90
62998;DHT22;55949;52.590;7.330;2023-02-13T05:17:58;9.30;99.90
62998;DHT22;55949;52.590;7.330;2023-02-13T05:18:58;9.20;99.90
62998;DHT22;55949;52.590;7.330;2023-02-13T05:19:59;9.20;99.90
62998;DHT22;55949;52.590;7.330;2023-02-13T05:21:00;9.20;99.90
62998;DHT22;55949;52.590;7.330;2023-02-13T05:22:19;9.20;99.90
62998;DHT22;55949;52.590;7.330;2023-02-13T05:23:39;9.20;99.90
62998;DHT22;55949;52.590;7.330;2023-02-13T05:24:39;9.70;99.90
62998;DHT22;55949;52.590;7.330;2023-02-13T05:25:41;10.10;99.90
62998;DHT22;55949;52.590;7.330;2023-02-13T05:26:41;10.20;99.90
62998;DHT22;55949;52.590;7.330;2023-02-13T05:27:42;10.10;99.90
62998;DHT22;55949;52.590;7.330;2023-02-13T05:28:43;10.00;99.90
62998;DHT22;55949;52.590;7.330;2023-02-13T05:30:02;10.00;99.90
62998;DHT22;55949;52.590;7.330;2023-02-13T05:31:03;9.90;99.90
62998;DHT22;55949;52.590;7.330;2023-02-13T05:32:04;9.70;99.90
62998;DHT22;55949;52.590;7.330;2023-02-13T05:33:05;9.60;99.90
62998;DHT22;55949;52.590;7.330;2023-02-13T05:34:06;9.90;99.90
62998;DHT22;55949;52.590;7.330;2023-02-13T05:35:07;10.30;99.90
62998;DHT22;55949;52.590;7.330;2023-02-13T05:36:07;10.50;99.90
62998;DHT22;55949;52.590;7.330;2023-02-13T05:37:08;10.60;99.90
62998;DHT22;55949;52.590;7.330;2023-02-13T05:38:09;10.50;99.90
62998;DHT22;55949;52.590;7.330;2023-02-13T05:39:10;10.40;99.90
62998;DHT22;55949;52.590;7.330;2023-02-13T05:40:12;10.20;99.90
62998;DHT22;55949;52.590;7.330;2023-02-13T05:41:12;10.00;99.90
62998;DHT22;55949;52.590;7.330;2023-02-13T05:42:13;9.90;99.90
62998;DHT22;55949;52.590;7.330;2023-02-13T05:43:14;9.80;99.90
62998;DHT22;55949;52.590;7.330;2023-02-13T05:44:15;9.70;99.90
62998;DHT22;55949;52.590;7.330;2023-02-13T05:45:16;9.60;99.90
62998;DHT22;55949;52.590;7.330;2023-02-13T05:46:17;9.60;99.90
62998;DHT22;55949;52.590;7.330;2023-02-13T05:47:17;9.50;99.90
62998;DHT22;55949;52.590;7.330;2023-02-13T05:48:18;9.60;99.90
62998;DHT22;55949;52.590;7.330;2023-02-13T05:49:19;9.50;99.90
62998;DHT22;55949;52.590;7.330;2023-02-13T05:50:20;9.40;99.90
62998;DHT22;55949;52.590;7.330;2023-02-13T05:51:21;9.40;99.90
62998;DHT22;55949;52.590;7.330;2023-02-13T05:52:21;9.40;99.90
62998;DHT22;55949;52.590;7.330;2023-02-13T05:53:22;9.40;99.90
62998;DHT22;55949;52.590;7.330;2023-02-13T05:54:23;9.40;99.90
62998;DHT22;55949;52.590;7.330;2023-02-13T05:55:24;9.40;99.90
62998;DHT22;55949;52.590;7.330;2023-02-13T05:56:25;9.30;99.90
62998;DHT22;55949;52.590;7.330;2023-02-13T05:57:25;9.20;99.90
62998;DHT22;55949;52.590;7.330;2023-02-13T05:58:26;9.20;99.90
62998;DHT22;55949;52.590;7.330;2023-02-13T05:59:27;9.10;99.90
62998;DHT22;55949;52.590;7.330;2023-02-13T06:00:28;9.00;99.90
62998;DHT22;55949;52.590;7.330;2023-02-13T06:01:28;9.00;99.90
62998;DHT22;55949;52.590;7.330;2023-02-13T06:02:29;8.90;99.90
62998;DHT22;55949;52.590;7.330;2023-02-13T06:03:31;8.90;99.90
62998;DHT22;55949;52.590;7.330;2023-02-13T06:04:32;9.00;99.90
62998;DHT22;55949;52.590;7.330;2023-02-13T06:05:32;9.00;99.90
62998;DHT22;55949;52.590;7.330;2023-02-13T06:06:33;9.10;99.90
62998;DHT22;55949;52.590;7.330;2023-02-13T06:07:34;9.10;99.90
62998;DHT22;55949;52.590;7.330;2023-02-13T06:08:35;9.10;99.90
62998;DHT22;55949;52.590;7.330;2023-02-13T06:09:36;9.00;99.90
62998;DHT22;55949;52.590;7.330;2023-02-13T06:10:37;8.90;99.90
62998;DHT22;55949;52.590;7.330;2023-02-13T06:11:37;8.80;99.90
62998;DHT22;55949;52.590;7.330;2023-02-13T06:12:38;8.80;99.90
62998;DHT22;55949;52.590;7.330;2023-02-13T06:13:39;8.70;99.90
62998;DHT22;55949;52.590;7.330;2023-02-13T06:14:40;8.70;99.90
62998;DHT22;55949;52.590;7.330;2023-02-13T06:15:40;8.70;99.90
62998;DHT22;55949;52.590;7.330;2023-02-13T06:16:41;8.70;99.90
62998;DHT22;55949;52.590;7.330;2023-02-13T06:17:42;8.70;99.90
62998;DHT22;55949;52.590;7.330;2023-02-13T06:18:43;8.80;99.90
62998;DHT22;55949;52.590;7.330;2023-02-13T06:19:43;8.70;99.90
62998;DHT22;55949;52.590;7.330;2023-02-13T06:20:44;8.80;99.90
62998;DHT22;55949;52.590;7.330;2023-02-13T06:21:45;8.80;99.90
62998;DHT22;55949;52.590;7.330;2023-02-13T06:22:49;8.80;99.90
62998;DHT22;55949;52.590;7.330;2023-02-13T06:23:50;8.90;99.90
62998;DHT22;55949;52.590;7.330;2023-02-13T06:24:51;8.90;99.90
62998;DHT22;55949;52.590;7.330;2023-02-13T06:25:52;8.90;99.90
62998;DHT22;55949;52.590;7.330;2023-02-13T06:26:53;8.90;99.90
62998;DHT22;55949;52.590;7.330;2023-02-13T06:27:54;8.90;99.90
62998;DHT22;55949;52.590;7.330;2023-02-13T06:28:54;8.90;99.90
62998;DHT22;55949;52.590;7.330;2023-02-13T06:29:55;8.90;99.90
62998;DHT22;55949;52.590;7.330;2023-02-13T06:30:56;8.80;99.90
62998;DHT22;55949;52.590;7.330;2023-02-13T06:31:56;8.90;99.90
62998;DHT22;55949;52.590;7.330;2023-02-13T06:32:57;8.90;99.90
62998;DHT22;55949;52.590;7.330;2023-02-13T06:33:58;8.90;99.90
62998;DHT22;55949;52.590;7.330;2023-02-13T06:34:59;8.90;99.90
62998;DHT22;55949;52.590;7.330;2023-02-13T06:35:59;8.90;99.90
62998;DHT22;55949;52.590;7.330;2023-02-13T06:37:00;8.90;99.90
62998;DHT22;55949;52.590;7.330;2023-02-13T06:38:01;9.00;99.90
62998;DHT22;55949;52.590;7.330;2023-02-13T06:39:02;9.20;99.90
62998;DHT22;55949;52.590;7.330;2023-02-13T06:40:07;9.20;99.90
62998;DHT22;55949;52.590;7.330;2023-02-13T06:41:08;9.20;99.90
62998;DHT22;55949;52.590;7.330;2023-02-13T06:42:09;9.10;99.90
62998;DHT22;55949;52.590;7.330;2023-02-13T06:43:10;9.00;99.90
62998;DHT22;55949;52.590;7.330;2023-02-13T06:44:10;9.00;99.90
62998;DHT22;55949;52.590;7.330;2023-02-13T06:45:12;9.00;99.90
62998;DHT22;55949;52.590;7.330;2023-02-13T06:46:13;9.00;99.90
62998;DHT22;55949;52.590;7.330;2023-02-13T06:47:14;9.00;99.90
62998;DHT22;55949;52.590;7.330;2023-02-13T06:48:14;9.00;99.90
62998;DHT22;55949;52.590;7.330;2023-02-13T06:49:15;8.90;99.90
62998;DHT22;55949;52.590;7.330;2023-02-13T06:50:16;8.80;99.90
62998;DHT22;55949;52.590;7.330;2023-02-13T06:51:17;8.80;99.90
62998;DHT22;55949;52.590;7.330;2023-02-13T06:52:18;8.90;99.90
62998;DHT22;55949;52.590;7.330;2023-02-13T06:53:19;8.90;99.90
62998;DHT22;55949;52.590;7.330;2023-02-13T06:54:24;8.90;99.90
62998;DHT22;55949;52.590;7.330;2023-02-13T06:55:24;9.00;99.90
62998;DHT22;55949;52.590;7.330;2023-02-13T06:56:25;9.10;99.90
62998;DHT22;55949;52.590;7.330;2023-02-13T06:57:26;9.10;99.90
62998;DHT22;55949;52.590;7.330;2023-02-13T06:58:27;9.20;99.90
62998;DHT22;55949;52.590;7.330;2023-02-13T06:59:27;9.10;99.90
62998;DHT22;55949;52.590;7.330;2023-02-13T07:00:28;9.10;99.90
62998;DHT22;55949;52.590;7.330;2023-02-13T07:01:29;9.10;99.90
62998;DHT22;55949;52.590;7.330;2023-02-13T07:02:33;9.20;99.90
62998;DHT22;55949;52.590;7.330;2023-02-13T07:03:33;9.20;99.90
62998;DHT22;55949;52.590;7.330;2023-02-13T07:04:35;9.30;99.90
62998;DHT22;55949;52.590;7.330;2023-02-13T07:05:40;9.30;99.90
62998;DHT22;55949;52.590;7.330;2023-02-13T07:06:42;9.30;99.90
62998;DHT22;55949;52.590;7.330;2023-02-13T07:07:44;9.30;99.90
62998;DHT22;55949;52.590;7.330;2023-02-13T07:08:44;9.40;99.90
62998;DHT22;55949;52.590;7.330;2023-02-13T07:09:45;9.40;99.90
62998;DHT22;55949;52.590;7.330;2023-02-13T07:10:46;9.30;99.90
62998;DHT22;55949;52.590;7.330;2023-02-13T07:11:47;9.30;99.90
62998;DHT22;55949;52.590;7.330;2023-02-13T07:12:48;9.30;99.90
62998;DHT22;55949;52.590;7.330;2023-02-13T07:13:50;9.40;99.90
62998;DHT22;55949;52.590;7.330;2023-02-13T07:14:50;9.70;99.90
62998;DHT22;55949;52.590;7.330;2023-02-13T07:15:51;9.90;99.90
62998;DHT22;55949;52.590;7.330;2023-02-13T07:16:52;9.80;99.90
62998;DHT22;55949;52.590;7.330;2023-02-13T07:17:57;9.70;99.90
62998;DHT22;55949;52.590;7.330;2023-02-13T07:18:58;9.80;99.90
62998;DHT22;55949;52.590;7.330;2023-02-13T07:19:58;9.80;99.90
62998;DHT22;55949;52.590;7.330;2023-02-13T07:20:59;9.60;99.90
62998;DHT22;55949;52.590;7.330;2023-02-13T07:22:00;9.50;99.90
62998;DHT22;55949;52.590;7.330;2023-02-13T07:23:03;9.50;99.90
62998;DHT22;55949;52.590;7.330;2023-02-13T07:24:04;9.60;99.90
62998;DHT22;55949;52.590;7.330;2023-02-13T07:25:05;9.60;99.90
62998;DHT22;55949;52.590;7.330;2023-02-13T07:26:06;9.60;99.90
62998;DHT22;55949;52.590;7.330;2023-02-13T07:27:07;9.60;99.90
62998;DHT22;55949;52.590;7.330;2023-02-13T07:28:08;9.60;99.90
62998;DHT22;55949;52.590;7.330;2023-02-13T07:29:09;9.50;99.90
62998;DHT22;55949;52.590;7.330;2023-02-13T07:30:10;9.50;99.90
62998;DHT22;55949;52.590;7.330;2023-02-13T07:31:11;9.50;99.90
62998;DHT22;55949;52.590;7.330;2023-02-13T07:32:12;9.40;99.90
62998;DHT22;55949;52.590;7.330;2023-02-13T07:33:13;9.40;99.90
62998;DHT22;55949;52.590;7.330;2023-02-13T07:34:14;9.30;99.90
62998;DHT22;55949;52.590;7.330;2023-02-13T07:35:14;9.30;99.90
62998;DHT22;55949;52.590;7.330;2023-02-13T07:36:15;9.20;99.90